sensor_id;sensor_type;location;lat;lon;timestamp;pressure;altitude;pressure_sealevel;temperature;humidity
7524;BME280;3803;51.666;7.630;2023-02-17T00:00:00;101384.75;;;11.64;67.27
7524;BME280;3803;51.666;7.630;2023-02-17T00:00:21;101391.81;;;11.67;67.46
7524;BME280;3803;51.666;7.630;2023-02-17T00:00:41;101389.09;;;11.64;67.48
7524;BME280;3803;51.666;7.630;2023-02-17T00:01:29;101397.38;;;11.76;67.50
7524;BME280;3803;51.666;7.630;2023-02-17T00:01:50;101403.41;;;11.74;67.24
7524;BME280;3803;51.666;7.630;2023-02-17T00:02:11;101393.78;;;11.73;67.05
7524;BME280;3803;51.666;7.630;2023-02-17T00:02:31;101391.16;;;11.73;67.16
7524;BME280;3803;51.666;7.630;2023-02-17T00:02:55;101394.75;;;11.76;67.34
7524;BME280;3803;51.666;7.630;2023-02-17T00:03:16;101381.47;;;11.70;67.44
7524;BME280;3803;51.666;7.630;2023-02-17T00:03:37;101381.47;;;11.70;67.20
7524;BME280;3803;51.666;7.630;2023-02-17T00:03:58;101378.91;;;11.72;67.54
7524;BME280;3803;51.666;7.630;2023-02-17T00:04:18;101391.19;;;11.74;67.52
7524;BME280;3803;51.666;7.630;2023-02-17T00:04:39;101381.47;;;11.70;67.13
7524;BME280;3803;51.666;7.630;2023-02-17T00:05:00;101385.94;;;11.73;67.45
7524;BME280;3803;51.666;7.630;2023-02-17T00:05:20;101390.47;;;11.78;67.37
7524;BME280;3803;51.666;7.630;2023-02-17T00:05:41;101382.47;;;11.74;67.24
7524;BME280;3803;51.666;7.630;2023-02-17T00:06:09;101381.56;;;11.73;67.43
7524;BME280;3803;51.666;7.630;2023-02-17T00:06:30;101386.75;;;11.72;67.47
7524;BME280;3803;51.666;7.630;2023-02-17T00:06:51;101376.34;;;11.73;67.51
7524;BME280;3803;51.666;7.630;2023-02-17T00:07:12;101385.97;;;11.74;67.23
7524;BME280;3803;51.666;7.630;2023-02-17T00:07:33;101397.25;;;11.73;67.14
7524;BME280;3803;51.666;7.630;2023-02-17T00:07:53;101374.50;;;11.71;67.49
7524;BME280;3803;51.666;7.630;2023-02-17T00:08:14;101385.13;;;11.75;67.43
7524;BME280;3803;51.666;7.630;2023-02-17T00:08:35;101381.69;;;11.76;67.57
7524;BME280;3803;51.666;7.630;2023-02-17T00:08:57;101366.66;;;11.71;67.31
7524;BME280;3803;51.666;7.630;2023-02-17T00:09:18;101374.66;;;11.75;67.39
7524;BME280;3803;51.666;7.630;2023-02-17T00:09:40;101379.84;;;11.74;67.52
7524;BME280;3803;51.666;7.630;2023-02-17T00:10:01;101381.56;;;11.73;67.44
7524;BME280;3803;51.666;7.630;2023-02-17T00:10:21;101370.63;;;11.59;67.83
7524;BME280;3803;51.666;7.630;2023-02-17T00:10:42;101365.09;;;11.50;67.82
7524;BME280;3803;51.666;7.630;2023-02-17T00:11:03;101377.25;;;11.49;67.97
7524;BME280;3803;51.666;7.630;2023-02-17T00:11:23;101368.72;;;11.54;68.24
7524;BME280;3803;51.666;7.630;2023-02-17T00:11:44;101363.63;;;11.58;68.02
7524;BME280;3803;51.666;7.630;2023-02-17T00:12:05;101359.50;;;11.65;68.15
7524;BME280;3803;51.666;7.630;2023-02-17T00:12:26;101365.88;;;11.73;67.83
7524;BME280;3803;51.666;7.630;2023-02-17T00:12:46;101369.34;;;11.72;67.87
7524;BME280;3803;51.666;7.630;2023-02-17T00:13:07;101365.25;;;11.81;67.51
7524;BME280;3803;51.666;7.630;2023-02-17T00:13:28;101356.34;;;11.75;67.66
7524;BME280;3803;51.666;7.630;2023-02-17T00:13:50;101366.94;;;11.78;67.65
7524;BME280;3803;51.666;7.630;2023-02-17T00:14:12;101356.06;;;11.66;67.50
7524;BME280;3803;51.666;7.630;2023-02-17T00:14:33;101358.56;;;11.63;67.91
7524;BME280;3803;51.666;7.630;2023-02-17T00:14:54;101362.44;;;11.74;67.77
7524;BME280;3803;51.666;7.630;2023-02-17T00:15:14;101353.75;;;11.75;67.57
7524;BME280;3803;51.666;7.630;2023-02-17T00:15:37;101353.84;;;11.78;67.54
7524;BME280;3803;51.666;7.630;2023-02-17T00:15:58;101358.72;;;11.68;67.85
7524;BME280;3803;51.666;7.630;2023-02-17T00:16:22;101367.34;;;11.65;67.97
7524;BME280;3803;51.666;7.630;2023-02-17T00:16:43;101360.66;;;11.73;67.62
7524;BME280;3803;51.666;7.630;2023-02-17T00:17:03;101357.25;;;11.76;67.53
7524;BME280;3803;51.666;7.630;2023-02-17T00:17:24;101357.41;;;11.81;67.81
7524;BME280;3803;51.666;7.630;2023-02-17T00:17:45;101360.66;;;11.73;67.61
7524;BME280;3803;51.666;7.630;2023-02-17T00:18:06;101366.19;;;11.83;67.58
7524;BME280;3803;51.666;7.630;2023-02-17T00:18:45;101369.78;;;11.86;67.43
7524;BME280;3803;51.666;7.630;2023-02-17T00:19:06;101360.16;;;11.85;67.60
7524;BME280;3803;51.666;7.630;2023-02-17T00:19:42;101369.56;;;11.78;67.71
7524;BME280;3803;51.666;7.630;2023-02-17T00:20:04;101364.19;;;11.75;67.75
7524;BME280;3803;51.666;7.630;2023-02-17T00:20:24;101363.41;;;11.78;68.00
7524;BME280;3803;51.666;7.630;2023-02-17T00:20:45;101352.75;;;11.72;67.85
7524;BME280;3803;51.666;7.630;2023-02-17T00:21:34;101371.25;;;11.78;67.76
7524;BME280;3803;51.666;7.630;2023-02-17T00:21:59;101373.63;;;11.70;67.86
7524;BME280;3803;51.666;7.630;2023-02-17T00:22:20;101370.19;;;11.71;68.04
7524;BME280;3803;51.666;7.630;2023-02-17T00:22:40;101366.88;;;11.77;67.86
7524;BME280;3803;51.666;7.630;2023-02-17T00:23:01;101371.22;;;11.76;68.02
7524;BME280;3803;51.666;7.630;2023-02-17T00:23:22;101352.94;;;11.76;67.80
7524;BME280;3803;51.666;7.630;2023-02-17T00:23:43;101359.94;;;11.77;67.93
7524;BME280;3803;51.666;7.630;2023-02-17T00:24:04;101363.13;;;11.69;68.14
7524;BME280;3803;51.666;7.630;2023-02-17T00:24:29;101354.38;;;11.68;68.05
7524;BME280;3803;51.666;7.630;2023-02-17T00:24:50;101370.47;;;11.81;67.95
7524;BME280;3803;51.666;7.630;2023-02-17T00:25:10;101362.53;;;11.77;67.88
7524;BME280;3803;51.666;7.630;2023-02-17T00:25:31;101354.63;;;11.76;67.91
7524;BME280;3803;51.666;7.630;2023-02-17T00:25:52;101371.41;;;11.83;67.77
7524;BME280;3803;51.666;7.630;2023-02-17T00:26:13;101358.34;;;11.83;67.97
7524;BME280;3803;51.666;7.630;2023-02-17T00:26:35;101348.63;;;11.78;67.94
7524;BME280;3803;51.666;7.630;2023-02-17T00:26:56;101371.41;;;11.83;68.15
7524;BME280;3803;51.666;7.630;2023-02-17T00:27:16;101358.16;;;11.76;68.04
7524;BME280;3803;51.666;7.630;2023-02-17T00:27:37;101354.69;;;11.77;68.17
7524;BME280;3803;51.666;7.630;2023-02-17T00:27:58;101350.31;;;11.76;67.96
7524;BME280;3803;51.666;7.630;2023-02-17T00:28:18;101352.19;;;11.81;67.96
7524;BME280;3803;51.666;7.630;2023-02-17T00:28:39;101349.75;;;11.87;67.87
7524;BME280;3803;51.666;7.630;2023-02-17T00:29:00;101356.13;;;11.95;68.04
7524;BME280;3803;51.666;7.630;2023-02-17T00:29:21;101347.22;;;11.90;67.62
7524;BME280;3803;51.666;7.630;2023-02-17T00:29:42;101359.72;;;11.99;67.43
7524;BME280;3803;51.666;7.630;2023-02-17T00:30:03;101343.78;;;11.91;67.65
7524;BME280;3803;51.666;7.630;2023-02-17T00:30:23;101341.22;;;11.92;67.67
7524;BME280;3803;51.666;7.630;2023-02-17T00:30:46;101349.13;;;11.94;67.37
7524;BME280;3803;51.666;7.630;2023-02-17T00:31:25;101355.19;;;11.93;67.50
7524;BME280;3803;51.666;7.630;2023-02-17T00:31:45;101342.19;;;11.96;67.66
7524;BME280;3803;51.666;7.630;2023-02-17T00:32:06;101336.78;;;11.90;67.65
7524;BME280;3803;51.666;7.630;2023-02-17T00:32:29;101345.66;;;11.95;67.73
7524;BME280;3803;51.666;7.630;2023-02-17T00:32:50;101357.91;;;11.96;67.26
7524;BME280;3803;51.666;7.630;2023-02-17T00:33:10;101357.97;;;11.99;67.82
7524;BME280;3803;51.666;7.630;2023-02-17T00:33:31;101338.75;;;11.97;67.46
7524;BME280;3803;51.666;7.630;2023-02-17T00:33:55;101353.56;;;11.97;67.50
7524;BME280;3803;51.666;7.630;2023-02-17T00:34:16;101351.81;;;11.97;67.46
7524;BME280;3803;51.666;7.630;2023-02-17T00:34:37;101339.66;;;11.98;67.39
7524;BME280;3803;51.666;7.630;2023-02-17T00:34:57;101347.50;;;11.99;67.35
7524;BME280;3803;51.666;7.630;2023-02-17T00:35:18;101350.09;;;11.98;67.48
7524;BME280;3803;51.666;7.630;2023-02-17T00:35:39;101336.19;;;11.99;67.26
7524;BME280;3803;51.666;7.630;2023-02-17T00:36:06;101342.19;;;11.96;67.51
7524;BME280;3803;51.666;7.630;2023-02-17T00:36:27;101343.38;;;12.06;67.23
7524;BME280;3803;51.666;7.630;2023-02-17T00:36:47;101336.13;;;11.97;67.37
7524;BME280;3803;51.666;7.630;2023-02-17T00:37:08;101339.53;;;11.95;67.33
7524;BME280;3803;51.666;7.630;2023-02-17T00:37:29;101344.13;;;12.02;67.29
7524;BME280;3803;51.666;7.630;2023-02-17T00:37:50;101341.41;;;11.99;67.52
7524;BME280;3803;51.666;7.630;2023-02-17T00:38:13;101342.28;;;11.99;67.50
7524;BME280;3803;51.666;7.630;2023-02-17T00:38:34;101337.06;;;11.99;67.29
7524;BME280;3803;51.666;7.630;2023-02-17T00:38:55;101335.19;;;11.95;67.38
7524;BME280;3803;51.666;7.630;2023-02-17T00:39:16;101358.88;;;12.00;67.44
7524;BME280;3803;51.666;7.630;2023-02-17T00:39:37;101335.41;;;12.01;67.24
7524;BME280;3803;51.666;7.630;2023-02-17T00:39:58;101329.19;;;11.99;67.53
7524;BME280;3803;51.666;7.630;2023-02-17T00:40:18;101342.47;;;12.05;67.30
7524;BME280;3803;51.666;7.630;2023-02-17T00:40:39;101341.69;;;12.08;67.54
7524;BME280;3803;51.666;7.630;2023-02-17T00:41:01;101341.56;;;12.03;67.42
7524;BME280;3803;51.666;7.630;2023-02-17T00:41:22;101352.22;;;12.10;67.48
7524;BME280;3803;51.666;7.630;2023-02-17T00:41:43;101345.28;;;12.12;67.08
7524;BME280;3803;51.666;7.630;2023-02-17T00:42:04;101337.22;;;12.04;67.24
7524;BME280;3803;51.666;7.630;2023-02-17T00:42:24;101326.78;;;12.05;67.07
7524;BME280;3803;51.666;7.630;2023-02-17T00:43:09;101348.81;;;12.12;67.20
7524;BME280;3803;51.666;7.630;2023-02-17T00:43:29;101337.25;;;12.05;67.36
7524;BME280;3803;51.666;7.630;2023-02-17T00:43:50;101339.13;;;12.10;67.10
7524;BME280;3803;51.666;7.630;2023-02-17T00:44:19;101340.72;;;12.04;67.48
7524;BME280;3803;51.666;7.630;2023-02-17T00:44:40;101340.91;;;12.11;67.44
7524;BME280;3803;51.666;7.630;2023-02-17T00:45:00;101333.75;;;12.05;67.21
7524;BME280;3803;51.666;7.630;2023-02-17T00:45:21;101344.25;;;12.06;67.61
7524;BME280;3803;51.666;7.630;2023-02-17T00:45:41;101334.59;;;12.04;67.53
7524;BME280;3803;51.666;7.630;2023-02-17T00:46:02;101331.09;;;12.03;67.27
7524;BME280;3803;51.666;7.630;2023-02-17T00:46:24;101333.78;;;12.06;67.33
7524;BME280;3803;51.666;7.630;2023-02-17T00:46:46;101346.22;;;12.14;67.21
7524;BME280;3803;51.666;7.630;2023-02-17T00:47:07;101333.13;;;12.12;67.39
7524;BME280;3803;51.666;7.630;2023-02-17T00:47:27;101323.53;;;12.13;67.19
7524;BME280;3803;51.666;7.630;2023-02-17T00:47:48;101332.22;;;12.12;67.08
7524;BME280;3803;51.666;7.630;2023-02-17T00:48:10;101335.94;;;12.20;67.03
7524;BME280;3803;51.666;7.630;2023-02-17T00:48:32;101339.34;;;12.16;67.10
7524;BME280;3803;51.666;7.630;2023-02-17T00:48:52;101329.53;;;12.10;66.92
7524;BME280;3803;51.666;7.630;2023-02-17T00:49:24;101328.03;;;12.17;66.85
7524;BME280;3803;51.666;7.630;2023-02-17T00:49:45;101323.53;;;12.13;67.15
7524;BME280;3803;51.666;7.630;2023-02-17T00:50:06;101328.75;;;12.13;67.10
7524;BME280;3803;51.666;7.630;2023-02-17T00:50:28;101337.53;;;12.15;67.10
7524;BME280;3803;51.666;7.630;2023-02-17T00:50:49;101333.19;;;12.15;67.07
7524;BME280;3803;51.666;7.630;2023-02-17T00:51:10;101324.44;;;12.15;66.97
7524;BME280;3803;51.666;7.630;2023-02-17T00:51:31;101330.63;;;12.17;67.01
7524;BME280;3803;51.666;7.630;2023-02-17T00:51:52;101325.44;;;12.18;66.84
7524;BME280;3803;51.666;7.630;2023-02-17T00:52:13;101335.06;;;12.19;66.69
7524;BME280;3803;51.666;7.630;2023-02-17T00:52:34;101338.50;;;12.18;66.81
7524;BME280;3803;51.666;7.630;2023-02-17T00:52:55;101328.09;;;12.20;67.06
7524;BME280;3803;51.666;7.630;2023-02-17T00:53:15;101342.09;;;12.20;66.78
7524;BME280;3803;51.666;7.630;2023-02-17T00:53:36;101324.56;;;12.18;66.98
7524;BME280;3803;51.666;7.630;2023-02-17T00:53:57;101323.72;;;12.19;66.91
7524;BME280;3803;51.666;7.630;2023-02-17T00:54:19;101328.88;;;12.16;67.15
7524;BME280;3803;51.666;7.630;2023-02-17T00:54:39;101331.63;;;12.20;66.74
7524;BME280;3803;51.666;7.630;2023-02-17T00:55:03;101321.03;;;12.17;66.86
7524;BME280;3803;51.666;7.630;2023-02-17T00:55:24;101330.78;;;12.23;66.77
7524;BME280;3803;51.666;7.630;2023-02-17T00:55:45;101319.31;;;12.18;66.99
7524;BME280;3803;51.666;7.630;2023-02-17T00:56:07;101351.94;;;12.29;66.72
7524;BME280;3803;51.666;7.630;2023-02-17T00:56:28;101332.59;;;12.24;66.89
7524;BME280;3803;51.666;7.630;2023-02-17T00:56:50;101329.03;;;12.22;66.87
7524;BME280;3803;51.666;7.630;2023-02-17T00:57:11;101331.75;;;12.25;67.18
7524;BME280;3803;51.666;7.630;2023-02-17T00:57:31;101335.38;;;12.30;66.76
7524;BME280;3803;51.666;7.630;2023-02-17T00:57:52;101323.91;;;12.25;66.75
7524;BME280;3803;51.666;7.630;2023-02-17T00:58:13;101335.38;;;12.30;66.71
7524;BME280;3803;51.666;7.630;2023-02-17T00:58:34;101330.91;;;12.26;66.71
7524;BME280;3803;51.666;7.630;2023-02-17T00:58:54;101341.38;;;12.26;66.57
7524;BME280;3803;51.666;7.630;2023-02-17T00:59:15;101326.53;;;12.27;66.70
7524;BME280;3803;51.666;7.630;2023-02-17T00:59:51;101322.88;;;12.20;66.92
7524;BME280;3803;51.666;7.630;2023-02-17T01:00:12;101329.09;;;12.24;66.94
7524;BME280;3803;51.666;7.630;2023-02-17T01:00:33;101315.00;;;12.20;66.57
7524;BME280;3803;51.666;7.630;2023-02-17T01:00:55;101324.75;;;12.24;66.88
7524;BME280;3803;51.666;7.630;2023-02-17T01:01:15;101323.72;;;12.19;66.76
7524;BME280;3803;51.666;7.630;2023-02-17T01:01:37;101331.66;;;12.22;66.71
7524;BME280;3803;51.666;7.630;2023-02-17T01:01:58;101332.69;;;12.27;66.47
7524;BME280;3803;51.666;7.630;2023-02-17T01:02:19;101332.69;;;12.27;66.51
7524;BME280;3803;51.666;7.630;2023-02-17T01:02:39;101327.44;;;12.27;66.72
7524;BME280;3803;51.666;7.630;2023-02-17T01:03:00;101333.66;;;12.31;66.76
7524;BME280;3803;51.666;7.630;2023-02-17T01:03:20;101320.53;;;12.29;66.84
7524;BME280;3803;51.666;7.630;2023-02-17T01:03:41;101323.84;;;12.24;66.98
7524;BME280;3803;51.666;7.630;2023-02-17T01:04:02;101334.53;;;12.31;66.78
7524;BME280;3803;51.666;7.630;2023-02-17T01:04:23;101337.06;;;12.28;66.79
7524;BME280;3803;51.666;7.630;2023-02-17T01:04:44;101323.91;;;12.25;66.73
7524;BME280;3803;51.666;7.630;2023-02-17T01:05:07;101327.53;;;12.30;66.49
7524;BME280;3803;51.666;7.630;2023-02-17T01:05:28;101319.53;;;12.26;66.77
7524;BME280;3803;51.666;7.630;2023-02-17T01:05:57;101338.19;;;12.37;66.71
7524;BME280;3803;51.666;7.630;2023-02-17T01:06:23;101323.97;;;12.28;66.60
7524;BME280;3803;51.666;7.630;2023-02-17T01:06:44;101323.97;;;12.28;66.56
7524;BME280;3803;51.666;7.630;2023-02-17T01:07:05;101325.88;;;12.32;66.65
7524;BME280;3803;51.666;7.630;2023-02-17T01:07:31;101337.06;;;12.28;66.69
7524;BME280;3803;51.666;7.630;2023-02-17T01:07:52;101341.72;;;12.39;66.66
7524;BME280;3803;51.666;7.630;2023-02-17T01:08:13;101334.53;;;12.31;66.53
7524;BME280;3803;51.666;7.630;2023-02-17T01:08:34;101324.06;;;12.31;66.65
7524;BME280;3803;51.666;7.630;2023-02-17T01:08:55;101327.38;;;12.24;66.76
7524;BME280;3803;51.666;7.630;2023-02-17T01:09:15;101336.13;;;12.26;66.52
7524;BME280;3803;51.666;7.630;2023-02-17T01:09:54;101331.09;;;12.32;66.67
7524;BME280;3803;51.666;7.630;2023-02-17T01:10:14;101330.06;;;12.27;66.90
7524;BME280;3803;51.666;7.630;2023-02-17T01:10:36;101323.97;;;12.28;66.77
7524;BME280;3803;51.666;7.630;2023-02-17T01:10:57;101327.44;;;12.27;66.81
7524;BME280;3803;51.666;7.630;2023-02-17T01:11:20;101332.88;;;12.33;66.51
7524;BME280;3803;51.666;7.630;2023-02-17T01:11:41;101320.63;;;12.32;66.77
7524;BME280;3803;51.666;7.630;2023-02-17T01:12:02;101328.44;;;12.31;66.93
7524;BME280;3803;51.666;7.630;2023-02-17T01:12:25;101320.44;;;12.26;66.92
7524;BME280;3803;51.666;7.630;2023-02-17T01:12:45;101312.47;;;12.23;66.72
7524;BME280;3803;51.666;7.630;2023-02-17T01:13:06;101320.44;;;12.26;66.53
7524;BME280;3803;51.666;7.630;2023-02-17T01:13:27;101324.03;;;12.30;66.81
7524;BME280;3803;51.666;7.630;2023-02-17T01:13:49;101324.88;;;12.29;66.81
7524;BME280;3803;51.666;7.630;2023-02-17T01:14:11;101329.41;;;12.34;66.63
7524;BME280;3803;51.666;7.630;2023-02-17T01:14:32;101319.66;;;12.29;66.54
7524;BME280;3803;51.666;7.630;2023-02-17T01:14:53;101324.16;;;12.34;66.46
7524;BME280;3803;51.666;7.630;2023-02-17T01:15:14;101326.59;;;12.28;66.79
7524;BME280;3803;51.666;7.630;2023-02-17T01:15:40;101325.94;;;12.36;66.54
7524;BME280;3803;51.666;7.630;2023-02-17T01:16:01;101319.81;;;12.35;66.62
7524;BME280;3803;51.666;7.630;2023-02-17T01:16:25;101311.75;;;12.27;66.65
7524;BME280;3803;51.666;7.630;2023-02-17T01:16:47;101321.50;;;12.33;66.79
7524;BME280;3803;51.666;7.630;2023-02-17T01:17:08;101321.38;;;12.28;66.65
7524;BME280;3803;51.666;7.630;2023-02-17T01:17:29;101310.84;;;12.27;66.74
7524;BME280;3803;51.666;7.630;2023-02-17T01:17:49;101313.44;;;12.25;66.94
7524;BME280;3803;51.666;7.630;2023-02-17T01:18:10;101303.84;;;12.26;66.68
7524;BME280;3803;51.666;7.630;2023-02-17T01:18:30;101314.44;;;12.30;67.00
7524;BME280;3803;51.666;7.630;2023-02-17T01:18:51;101319.66;;;12.30;66.68
7524;BME280;3803;51.666;7.630;2023-02-17T01:19:15;101319.81;;;12.35;66.51
7524;BME280;3803;51.666;7.630;2023-02-17T01:19:37;101306.50;;;12.27;66.49
7524;BME280;3803;51.666;7.630;2023-02-17T01:19:58;101312.53;;;12.25;66.71
7524;BME280;3803;51.666;7.630;2023-02-17T01:20:18;101311.81;;;12.30;66.84
7524;BME280;3803;51.666;7.630;2023-02-17T01:20:40;101304.75;;;12.26;66.62
7524;BME280;3803;51.666;7.630;2023-02-17T01:21:01;101309.19;;;12.30;66.78
7524;BME280;3803;51.666;7.630;2023-02-17T01:21:23;101301.28;;;12.27;66.80
7524;BME280;3803;51.666;7.630;2023-02-17T01:21:45;101300.34;;;12.25;66.89
7524;BME280;3803;51.666;7.630;2023-02-17T01:22:06;101309.19;;;12.29;66.70
7524;BME280;3803;51.666;7.630;2023-02-17T01:22:26;101315.28;;;12.29;66.79
7524;BME280;3803;51.666;7.630;2023-02-17T01:22:48;101313.69;;;12.34;66.86
7524;BME280;3803;51.666;7.630;2023-02-17T01:23:10;101311.81;;;12.30;66.98
7524;BME280;3803;51.666;7.630;2023-02-17T01:23:31;101302.25;;;12.31;66.73
7524;BME280;3803;51.666;7.630;2023-02-17T01:23:54;101303.00;;;12.27;66.95
7524;BME280;3803;51.666;7.630;2023-02-17T01:24:15;101316.25;;;12.33;66.93
7524;BME280;3803;51.666;7.630;2023-02-17T01:24:37;101318.00;;;12.32;67.11
7524;BME280;3803;51.666;7.630;2023-02-17T01:24:58;101313.59;;;12.31;66.96
7524;BME280;3803;51.666;7.630;2023-02-17T01:25:21;101306.59;;;12.30;66.92
7524;BME280;3803;51.666;7.630;2023-02-17T01:25:45;101306.59;;;12.30;67.10
7524;BME280;3803;51.666;7.630;2023-02-17T01:26:06;101301.34;;;12.30;66.77
7524;BME280;3803;51.666;7.630;2023-02-17T01:26:29;101311.81;;;12.30;66.97
7524;BME280;3803;51.666;7.630;2023-02-17T01:26:50;101304.94;;;12.32;66.83
7524;BME280;3803;51.666;7.630;2023-02-17T01:27:10;101294.34;;;12.29;67.08
7524;BME280;3803;51.666;7.630;2023-02-17T01:27:31;101318.16;;;12.39;67.20
7524;BME280;3803;51.666;7.630;2023-02-17T01:27:51;101296.13;;;12.30;66.47
7524;BME280;3803;51.666;7.630;2023-02-17T01:28:17;101296.13;;;12.30;67.03
7524;BME280;3803;51.666;7.630;2023-02-17T01:28:38;101288.31;;;12.32;66.68
7524;BME280;3803;51.666;7.630;2023-02-17T01:28:58;101290.88;;;12.30;67.02
7524;BME280;3803;51.666;7.630;2023-02-17T01:29:19;101292.56;;;12.28;66.72
7524;BME280;3803;51.666;7.630;2023-02-17T01:29:40;101312.00;;;12.37;66.79
7524;BME280;3803;51.666;7.630;2023-02-17T01:30:00;101306.78;;;12.37;66.92
7524;BME280;3803;51.666;7.630;2023-02-17T01:30:21;101289.97;;;12.28;66.86
7524;BME280;3803;51.666;7.630;2023-02-17T01:30:42;101292.50;;;12.25;66.84
7524;BME280;3803;51.666;7.630;2023-02-17T01:31:09;101299.69;;;12.32;67.25
7524;BME280;3803;51.666;7.630;2023-02-17T01:31:31;101292.63;;;12.30;67.11
7524;BME280;3803;51.666;7.630;2023-02-17T01:31:52;101289.13;;;12.29;66.91
7524;BME280;3803;51.666;7.630;2023-02-17T01:32:12;101293.38;;;12.26;67.15
7524;BME280;3803;51.666;7.630;2023-02-17T01:32:33;101283.88;;;12.29;67.09
7524;BME280;3803;51.666;7.630;2023-02-17T01:32:53;101287.34;;;12.28;66.84
7524;BME280;3803;51.666;7.630;2023-02-17T01:33:16;101287.28;;;12.27;67.03
7524;BME280;3803;51.666;7.630;2023-02-17T01:33:38;101298.00;;;12.34;66.94
7524;BME280;3803;51.666;7.630;2023-02-17T01:34:01;101291.00;;;12.33;66.90
7524;BME280;3803;51.666;7.630;2023-02-17T01:34:22;101292.81;;;12.36;66.80
7524;BME280;3803;51.666;7.630;2023-02-17T01:34:43;101287.53;;;12.34;66.60
7524;BME280;3803;51.666;7.630;2023-02-17T01:35:03;101299.78;;;12.36;67.08
7524;BME280;3803;51.666;7.630;2023-02-17T01:35:28;101296.31;;;12.37;67.02
7524;BME280;3803;51.666;7.630;2023-02-17T01:35:49;101279.56;;;12.30;66.86
7524;BME280;3803;51.666;7.630;2023-02-17T01:36:12;101280.41;;;12.30;66.95
7524;BME280;3803;51.666;7.630;2023-02-17T01:36:33;101277.81;;;12.30;66.89
7524;BME280;3803;51.666;7.630;2023-02-17T01:36:54;101269.94;;;12.30;67.11
7524;BME280;3803;51.666;7.630;2023-02-17T01:37:15;101284.13;;;12.39;67.00
7524;BME280;3803;51.666;7.630;2023-02-17T01:37:35;101284.00;;;12.32;66.91
7524;BME280;3803;51.666;7.630;2023-02-17T01:37:56;101288.28;;;12.30;67.22
7524;BME280;3803;51.666;7.630;2023-02-17T01:38:17;101283.28;;;12.38;66.87
7524;BME280;3803;51.666;7.630;2023-02-17T01:38:37;101285.00;;;12.38;66.87
7524;BME280;3803;51.666;7.630;2023-02-17T01:38:59;101280.53;;;12.33;67.04
7524;BME280;3803;51.666;7.630;2023-02-17T01:39:19;101283.09;;;12.32;67.20
7524;BME280;3803;51.666;7.630;2023-02-17T01:39:40;101275.19;;;12.30;67.15
7524;BME280;3803;51.666;7.630;2023-02-17T01:40:00;101284.06;;;12.36;67.02
7524;BME280;3803;51.666;7.630;2023-02-17T01:40:21;101275.28;;;12.33;67.09
7524;BME280;3803;51.666;7.630;2023-02-17T01:40:46;101284.13;;;12.39;66.83
7524;BME280;3803;51.666;7.630;2023-02-17T01:41:07;101277.97;;;12.37;67.16
7524;BME280;3803;51.666;7.630;2023-02-17T01:41:28;101296.53;;;12.44;67.21
7524;BME280;3803;51.666;7.630;2023-02-17T01:41:49;101278.03;;;12.38;66.89
7524;BME280;3803;51.666;7.630;2023-02-17T01:42:17;101269.22;;;12.34;67.00
7524;BME280;3803;51.666;7.630;2023-02-17T01:42:42;101273.66;;;12.39;66.76
7524;BME280;3803;51.666;7.630;2023-02-17T01:43:05;101285.09;;;12.41;67.04
7524;BME280;3803;51.666;7.630;2023-02-17T01:43:26;101271.81;;;12.34;66.95
7524;BME280;3803;51.666;7.630;2023-02-17T01:44:22;101286.03;;;12.43;67.12
7524;BME280;3803;51.666;7.630;2023-02-17T01:45:39;101292.13;;;12.43;67.13
7524;BME280;3803;51.666;7.630;2023-02-17T01:45:54;101281.44;;;12.36;67.10
7524;BME280;3803;51.666;7.630;2023-02-17T01:46:15;101289.50;;;12.43;67.11
7524;BME280;3803;51.666;7.630;2023-02-17T01:46:37;101276.41;;;12.42;66.83
7524;BME280;3803;51.666;7.630;2023-02-17T01:46:58;101292.97;;;12.42;66.76
7524;BME280;3803;51.666;7.630;2023-02-17T01:47:19;101284.31;;;12.45;66.97
7524;BME280;3803;51.666;7.630;2023-02-17T01:47:40;101287.84;;;12.45;66.87
7524;BME280;3803;51.666;7.630;2023-02-17T01:48:37;101287.97;;;12.50;67.08
7524;BME280;3803;51.666;7.630;2023-02-17T01:49:02;101278.16;;;12.43;66.85
7524;BME280;3803;51.666;7.630;2023-02-17T01:49:36;101291.44;;;12.49;66.81
7524;BME280;3803;51.666;7.630;2023-02-17T01:49:58;101282.56;;;12.44;67.29
7524;BME280;3803;51.666;7.630;2023-02-17T01:50:22;101278.91;;;12.39;67.00
7524;BME280;3803;51.666;7.630;2023-02-17T01:51:15;101290.59;;;12.50;67.09
7524;BME280;3803;51.666;7.630;2023-02-17T01:51:36;101282.63;;;12.47;66.98
7524;BME280;3803;51.666;7.630;2023-02-17T01:52:03;101284.31;;;12.45;66.92
7524;BME280;3803;51.666;7.630;2023-02-17T01:52:27;101283.47;;;12.46;67.00
7524;BME280;3803;51.666;7.630;2023-02-17T01:52:48;101277.25;;;12.42;67.29
7524;BME280;3803;51.666;7.630;2023-02-17T01:53:13;101278.25;;;12.46;66.85
7524;BME280;3803;51.666;7.630;2023-02-17T01:53:40;101278.25;;;12.46;67.03
7524;BME280;3803;51.666;7.630;2023-02-17T01:54:12;101287.97;;;12.50;66.99
7524;BME280;3803;51.666;7.630;2023-02-17T01:54:44;101287.88;;;12.47;67.11
7524;BME280;3803;51.666;7.630;2023-02-17T01:55:10;101298.38;;;12.48;67.20
7524;BME280;3803;51.666;7.630;2023-02-17T01:55:50;101278.28;;;12.47;66.91
7524;BME280;3803;51.666;7.630;2023-02-17T01:56:13;101295.19;;;12.59;66.76
7524;BME280;3803;51.666;7.630;2023-02-17T01:56:37;101287.97;;;12.50;66.84
7524;BME280;3803;51.666;7.630;2023-02-17T01:57:00;101282.69;;;12.48;66.93
7524;BME280;3803;51.666;7.630;2023-02-17T01:57:24;101289.75;;;12.51;66.80
7524;BME280;3803;51.666;7.630;2023-02-17T01:57:47;101280.19;;;12.53;66.82
7524;BME280;3803;51.666;7.630;2023-02-17T01:58:10;101279.13;;;12.46;66.68
7524;BME280;3803;51.666;7.630;2023-02-17T01:58:33;101278.25;;;12.46;66.92
7524;BME280;3803;51.666;7.630;2023-02-17T01:58:56;101279.13;;;12.46;66.85
7524;BME280;3803;51.666;7.630;2023-02-17T01:59:20;101281.59;;;12.40;66.99
7524;BME280;3803;51.666;7.630;2023-02-17T01:59:43;101283.41;;;12.43;67.00
7524;BME280;3803;51.666;7.630;2023-02-17T02:00:06;101282.56;;;12.44;66.99
7524;BME280;3803;51.666;7.630;2023-02-17T02:00:33;101281.81;;;12.48;66.82
7524;BME280;3803;51.666;7.630;2023-02-17T02:00:58;101276.47;;;12.45;67.06
7524;BME280;3803;51.666;7.630;2023-02-17T02:01:19;101274.66;;;12.42;67.02
7524;BME280;3803;51.666;7.630;2023-02-17T02:01:44;101265.94;;;12.42;66.88